Time;durP1;ratioP1;P1;durP2;ratioP2;P2;SDS_P1;SDS_P2;PMS_P1;PMS_P2;Temp;Humidity;BMP_temperature;BMP_pressure;BME280_temperature;BME280_humidity;BME280_pressure;Samples;Min_cycle;Max_cycle;Signal;HPM_P1;HPM_P2
2021/01/19 00:02:14;;;;;;;3.30;1.40;;;2.30;82.60;;;;;;5100724;27;20799;-72
2021/01/19 00:04:40;;;;;;;3.90;1.60;;;2.30;82.20;;;;;;5092097;28;20787;-72
2021/01/19 00:07:07;;;;;;;2.22;1.50;;;2.30;82.80;;;;;;5101075;27;20403;-72
2021/01/19 00:09:33;;;;;;;1.88;1.40;;;2.20;82.10;;;;;;5133599;27;20475;-72
2021/01/19 00:11:59;;;;;;;3.33;1.40;;;2.30;81.70;;;;;;5128333;27;21140;-72
2021/01/19 00:14:26;;;;;;;4.10;1.50;;;2.30;81.70;;;;;;5132771;27;20407;-72
2021/01/19 00:16:52;;;;;;;3.08;1.70;;;2.30;81.80;;;;;;5132436;27;20943;-72
2021/01/19 00:19:18;;;;;;;2.22;1.30;;;2.30;82.20;;;;;;5090000;28;20460;-72
2021/01/19 00:21:45;;;;;;;2.53;1.45;;;2.30;81.60;;;;;;5103868;28;20706;-72
2021/01/19 00:24:11;;;;;;;2.00;1.45;;;2.30;81.60;;;;;;5108471;28;20404;-72
2021/01/19 00:26:39;;;;;;;2.35;1.45;;;2.30;81.60;;;;;;5111779;28;20465;-72
2021/01/19 00:29:07;;;;;;;2.45;1.30;;;2.30;82.00;;;;;;5108365;28;20400;-72
2021/01/19 00:31:34;;;;;;;2.20;1.40;;;2.30;81.90;;;;;;5111409;28;20396;-72
2021/01/19 00:34:00;;;;;;;1.67;1.40;;;2.40;81.90;;;;;;5098502;28;20425;-72
2021/01/19 00:36:26;;;;;;;4.70;1.30;;;2.40;80.70;;;;;;5091121;28;20394;-72
2021/01/19 00:38:53;;;;;;;4.03;1.40;;;2.40;80.90;;;;;;5089634;28;20467;-72
2021/01/19 00:41:20;;;;;;;3.15;1.38;;;2.40;81.50;;;;;;5092188;28;20410;-72
2021/01/19 00:43:46;;;;;;;2.90;1.30;;;2.30;81.50;;;;;;5092029;28;20484;-72
2021/01/19 00:46:13;;;;;;;3.17;1.20;;;2.40;81.50;;;;;;5111769;28;20532;-72
2021/01/19 00:48:39;;;;;;;5.32;1.60;;;2.30;81.80;;;;;;5112718;28;20493;-72
2021/01/19 00:51:08;;;;;;;2.72;1.27;;;2.30;81.90;;;;;;5089322;28;20426;-73
2021/01/19 00:53:35;;;;;;;3.90;1.60;;;2.40;82.40;;;;;;5090755;28;20507;-72
2021/01/19 00:56:01;;;;;;;3.25;1.30;;;2.40;82.20;;;;;;5087418;28;20510;-72
2021/01/19 00:58:28;;;;;;;2.63;1.20;;;2.40;81.90;;;;;;5090802;28;20478;-72
2021/01/19 01:00:54;;;;;;;4.73;1.50;;;2.40;82.50;;;;;;5097126;28;20513;-72
2021/01/19 01:03:20;;;;;;;3.35;1.50;;;2.40;82.90;;;;;;5091998;28;20406;-72
2021/01/19 01:05:49;;;;;;;2.17;1.40;;;2.30;83.50;;;;;;5097542;28;20400;-72
2021/01/19 01:08:16;;;;;;;3.85;1.60;;;2.30;84.00;;;;;;5111406;28;20432;-72
2021/01/19 01:10:44;;;;;;;1.90;1.25;;;2.20;84.30;;;;;;5101541;28;20492;-72
2021/01/19 01:13:10;;;;;;;2.00;1.30;;;2.20;84.80;;;;;;5090556;28;21143;-72
2021/01/19 01:15:37;;;;;;;3.05;1.67;;;2.30;84.60;;;;;;5088168;28;20406;-72
2021/01/19 01:18:10;;;;;;;3.67;1.58;;;2.30;85.20;;;;;;5090234;28;20804;-72
2021/01/19 01:20:37;;;;;;;3.63;1.70;;;2.30;85.20;;;;;;5089303;27;20398;-71
2021/01/19 01:23:03;;;;;;;3.30;1.60;;;2.20;85.70;;;;;;5101633;28;20404;-73
2021/01/19 01:25:36;;;;;;;2.35;1.48;;;2.10;86.40;;;;;;5091625;28;20465;-73
2021/01/19 01:28:02;;;;;;;2.03;1.45;;;2.10;86.50;;;;;;5106792;28;20400;-71
2021/01/19 01:30:28;;;;;;;3.77;1.70;;;2.10;86.60;;;;;;5111444;28;20867;-73
2021/01/19 01:32:55;;;;;;;3.10;1.42;;;2.00;87.40;;;;;;5122563;27;20842;-73
2021/01/19 01:35:22;;;;;;;2.88;1.85;;;2.10;87.30;;;;;;5131469;27;20407;-73
2021/01/19 01:37:57;;;;;;;3.70;1.50;;;2.00;87.00;;;;;;5103447;27;20793;-73
2021/01/19 01:40:25;;;;;;;2.35;1.70;;;2.00;87.30;;;;;;5091524;28;20406;-74
2021/01/19 01:42:53;;;;;;;2.57;1.67;;;2.00;87.60;;;;;;5096059;28;20943;-73
2021/01/19 01:45:22;;;;;;;4.35;1.63;;;2.00;88.20;;;;;;5111095;28;20881;-73
2021/01/19 01:47:49;;;;;;;2.55;1.38;;;2.10;87.50;;;;;;5101740;28;20429;-74
2021/01/19 01:50:17;;;;;;;3.15;1.60;;;2.10;87.70;;;;;;5090957;28;20402;-73
2021/01/19 01:52:44;;;;;;;2.38;1.30;;;2.10;87.50;;;;;;5093077;27;20457;-73
2021/01/19 01:55:11;;;;;;;2.63;1.30;;;2.20;87.00;;;;;;5131158;27;20838;-73
2021/01/19 01:57:38;;;;;;;1.92;1.40;;;2.20;87.20;;;;;;5129290;27;20459;-73
2021/01/19 02:00:09;;;;;;;2.73;1.63;;;2.10;87.10;;;;;;5089831;28;20519;-73
2021/01/19 02:02:56;;;;;;;2.20;1.50;;;2.20;86.90;;;;;;5090137;28;20741;-73
2021/01/19 02:05:26;;;;;;;3.05;1.60;;;2.10;87.00;;;;;;5089204;28;20437;-73
2021/01/19 02:08:02;;;;;;;3.58;1.50;;;2.20;86.60;;;;;;5090728;28;20423;-73
2021/01/19 02:10:40;;;;;;;1.85;1.50;;;2.30;86.30;;;;;;5088763;28;20467;-73
2021/01/19 02:13:13;;;;;;;2.40;1.20;;;2.30;85.80;;;;;;5091302;28;20398;-73
2021/01/19 02:16:09;;;;;;;1.90;1.38;;;2.20;85.60;;;;;;5086282;28;20442;-73
2021/01/19 02:18:51;;;;;;;1.95;1.30;;;2.10;85.60;;;;;;5090550;28;20430;-72
2021/01/19 02:22:04;;;;;;;2.90;1.40;;;2.10;85.30;;;;;;5089715;28;20418;-73
2021/01/19 02:24:47;;;;;;;2.30;1.20;;;2.00;85.40;;;;;;5086623;28;20405;-73
2021/01/19 02:27:43;;;;;;;2.40;1.30;;;2.10;85.30;;;;;;5090897;28;20421;-73
2021/01/19 02:30:32;;;;;;;3.17;1.38;;;2.10;84.70;;;;;;5099009;28;20471;-73
2021/01/19 02:33:28;;;;;;;4.23;1.50;;;2.20;83.70;;;;;;5130436;28;20402;-73
2021/01/19 02:36:32;;;;;;;3.35;1.48;;;2.00;84.30;;;;;;5063133;28;20427;-74
2021/01/19 02:39:04;;;;;;;3.53;1.40;;;1.90;84.80;;;;;;5078889;28;20419;-73
2021/01/19 02:41:31;;;;;;;2.05;1.40;;;1.90;84.50;;;;;;5102623;28;20444;-73
2021/01/19 02:44:23;;;;;;;2.88;1.30;;;1.80;84.80;;;;;;5091196;28;20402;-74
2021/01/19 02:46:53;;;;;;;2.78;1.40;;;1.90;84.50;;;;;;5087005;28;20455;-73
2021/01/19 02:49:20;;;;;;;1.13;1.03;;;2.00;83.50;;;;;;5090792;28;20406;-73
2021/01/19 02:51:49;;;;;;;2.47;1.10;;;1.90;83.70;;;;;;5087238;28;20406;-73
2021/01/19 02:54:16;;;;;;;2.05;1.33;;;1.90;83.10;;;;;;5089990;28;20457;-73
2021/01/19 02:57:05;;;;;;;2.05;1.35;;;1.90;82.80;;;;;;5092181;28;20504;-73
2021/01/19 02:59:49;;;;;;;2.20;1.30;;;1.90;82.40;;;;;;5110670;28;20419;-73
2021/01/19 03:02:32;;;;;;;2.40;1.30;;;1.90;82.50;;;;;;5098098;28;20798;-73
2021/01/19 03:05:00;;;;;;;2.78;1.40;;;2.00;81.90;;;;;;5089765;28;20768;-73
2021/01/19 03:07:30;;;;;;;1.83;1.20;;;2.00;81.20;;;;;;5101650;27;20402;-73
2021/01/19 03:10:01;;;;;;;6.20;3.60;;;2.00;80.90;;;;;;5129953;28;20494;-73
2021/01/19 03:12:28;;;;;;;2.80;1.50;;;2.00;80.60;;;;;;5121374;27;20416;-73
2021/01/19 03:14:54;;;;;;;2.67;1.67;;;2.00;80.30;;;;;;5109915;28;20502;-73
2021/01/19 03:17:25;;;;;;;2.17;1.48;;;2.00;80.20;;;;;;5103875;28;20392;-73
2021/01/19 03:19:52;;;;;;;2.78;1.50;;;1.90;80.50;;;;;;5091083;28;20585;-73
2021/01/19 03:22:18;;;;;;;2.88;1.65;;;2.00;80.60;;;;;;5097809;28;20421;-73
2021/01/19 03:24:44;;;;;;;3.38;1.75;;;2.00;80.30;;;;;;5110157;28;20457;-73
2021/01/19 03:27:11;;;;;;;3.63;1.55;;;1.80;80.70;;;;;;5114347;28;20404;-73
2021/01/19 03:29:37;;;;;;;4.45;1.63;;;1.90;80.60;;;;;;5093173;28;20410;-73
2021/01/19 03:32:04;;;;;;;3.10;1.50;;;2.00;79.60;;;;;;5093308;28;20414;-73
2021/01/19 03:34:32;;;;;;;3.13;1.45;;;1.90;79.90;;;;;;5101974;28;20913;-73
2021/01/19 03:37:02;;;;;;;2.25;1.40;;;2.00;79.10;;;;;;5111788;28;20412;-73
2021/01/19 03:39:31;;;;;;;2.95;1.65;;;2.00;79.00;;;;;;5108350;28;20429;-73
2021/01/19 03:42:00;;;;;;;3.40;1.70;;;2.10;78.40;;;;;;5113728;27;20409;-72
2021/01/19 03:44:28;;;;;;;3.80;2.00;;;2.10;78.10;;;;;;5109180;28;20404;-73
2021/01/19 03:46:57;;;;;;;4.93;2.28;;;2.10;78.30;;;;;;5113604;28;20453;-73
2021/01/19 03:49:24;;;;;;;4.78;2.20;;;2.10;78.10;;;;;;5109187;27;20469;-73
2021/01/19 03:51:50;;;;;;;3.15;1.95;;;2.10;77.70;;;;;;5111308;28;20408;-73
2021/01/19 03:54:16;;;;;;;4.23;1.80;;;2.10;77.70;;;;;;5110582;28;20400;-73
2021/01/19 03:56:46;;;;;;;2.50;1.50;;;2.10;77.30;;;;;;5091574;28;20464;-73
2021/01/19 03:59:13;;;;;;;2.35;1.40;;;2.30;76.20;;;;;;5091687;28;20487;-73
2021/01/19 04:01:41;;;;;;;2.70;1.50;;;2.20;77.20;;;;;;5125666;27;20394;-73
2021/01/19 04:04:08;;;;;;;2.38;1.38;;;2.20;76.60;;;;;;5132606;27;20823;-73
2021/01/19 04:06:35;;;;;;;1.93;1.30;;;2.10;77.00;;;;;;5115163;27;20427;-73
2021/01/19 04:09:01;;;;;;;2.20;1.40;;;2.20;76.10;;;;;;5113148;28;20412;-73
2021/01/19 04:11:28;;;;;;;2.75;1.48;;;2.20;76.60;;;;;;5108647;28;20541;-73
2021/01/19 04:13:54;;;;;;;2.08;1.33;;;2.10;76.50;;;;;;5113057;27;20416;-73
2021/01/19 04:16:21;;;;;;;2.85;1.38;;;2.10;76.40;;;;;;5101943;27;20402;-73
2021/01/19 04:18:47;;;;;;;2.40;1.50;;;2.00;76.60;;;;;;5091712;28;20426;-73
2021/01/19 04:21:13;;;;;;;2.67;1.52;;;2.00;76.70;;;;;;5089823;28;20425;-73
2021/01/19 04:23:40;;;;;;;3.50;1.40;;;2.00;76.50;;;;;;5108928;28;20405;-73
2021/01/19 04:26:07;;;;;;;2.85;1.40;;;2.00;76.60;;;;;;5108510;28;20841;-73
2021/01/19 04:28:33;;;;;;;2.58;1.50;;;2.00;76.60;;;;;;5074556;28;20417;-73
2021/01/19 04:30:59;;;;;;;2.50;1.50;;;2.10;76.40;;;;;;5091020;28;20410;-73
2021/01/19 04:33:27;;;;;;;2.97;1.50;;;2.00;76.60;;;;;;5088426;28;20520;-73
2021/01/19 04:35:53;;;;;;;3.23;1.60;;;1.90;76.70;;;;;;5092226;28;20409;-73
2021/01/19 04:38:20;;;;;;;3.50;2.15;;;2.00;76.40;;;;;;5099811;28;20489;-73
2021/01/19 04:40:47;;;;;;;4.20;2.65;;;2.00;76.40;;;;;;5111412;28;20457;-73
2021/01/19 04:43:16;;;;;;;4.65;2.50;;;1.80;77.20;;;;;;5107350;28;20449;-72
2021/01/19 04:45:43;;;;;;;4.90;2.40;;;1.70;77.20;;;;;;5112308;28;20666;-73
2021/01/19 04:48:11;;;;;;;3.43;2.40;;;1.80;77.20;;;;;;5102036;27;20463;-73
2021/01/19 04:50:38;;;;;;;2.90;2.10;;;1.70;77.10;;;;;;5091832;28;20434;-73
2021/01/19 04:53:09;;;;;;;5.07;2.30;;;1.80;76.80;;;;;;5090387;27;20405;-73
2021/01/19 04:55:36;;;;;;;4.03;2.03;;;1.70;77.20;;;;;;5090193;28;20516;-72
2021/01/19 04:58:05;;;;;;;4.05;2.10;;;1.60;77.60;;;;;;5090990;27;20402;-73
2021/01/19 05:00:36;;;;;;;4.22;2.30;;;1.50;78.00;;;;;;5131821;27;20444;-73
2021/01/19 05:03:03;;;;;;;3.60;2.00;;;1.50;78.00;;;;;;5131554;27;21076;-73
2021/01/19 05:05:38;;;;;;;4.75;2.15;;;1.50;78.20;;;;;;5127519;27;20476;-73
2021/01/19 05:08:26;;;;;;;4.32;2.00;;;1.50;78.40;;;;;;5132763;27;20399;-73
2021/01/19 05:11:01;;;;;;;4.13;2.20;;;1.40;79.10;;;;;;5109953;28;20417;-72
2021/01/19 05:13:52;;;;;;;6.88;2.97;;;1.30;79.40;;;;;;5111503;28;20400;-73
2021/01/19 05:16:21;;;;;;;5.55;2.47;;;1.30;78.70;;;;;;5091292;28;20777;-72
2021/01/19 05:18:49;;;;;;;3.45;2.33;;;1.30;78.60;;;;;;5091314;28;20446;-73
2021/01/19 05:21:16;;;;;;;4.97;2.30;;;1.30;78.30;;;;;;5087834;28;20479;-72
2021/01/19 05:23:43;;;;;;;3.65;2.17;;;1.30;78.50;;;;;;5107815;28;20434;-73
2021/01/19 05:26:15;;;;;;;5.22;2.30;;;1.20;79.00;;;;;;5092690;28;20426;-73
2021/01/19 05:28:49;;;;;;;4.68;2.83;;;1.20;79.20;;;;;;5091299;28;20462;-73
2021/01/19 05:31:16;;;;;;;4.67;2.60;;;1.20;79.50;;;;;;5087945;28;20788;-73
2021/01/19 05:33:54;;;;;;;4.85;2.70;;;1.00;80.30;;;;;;5090511;28;20406;-73
2021/01/19 05:36:25;;;;;;;5.82;2.97;;;0.90;81.00;;;;;;5087754;28;20514;-72
2021/01/19 05:38:59;;;;;;;5.72;2.97;;;0.80;81.80;;;;;;5090620;28;20486;-73
2021/01/19 05:41:41;;;;;;;4.35;2.88;;;1.00;81.50;;;;;;5088761;28;20433;-73
2021/01/19 05:44:40;;;;;;;5.50;3.17;;;0.90;81.10;;;;;;5090644;28;20870;-73
2021/01/19 05:47:06;;;;;;;10.17;3.80;;;0.90;81.60;;;;;;5065018;28;20935;-73
2021/01/19 05:49:42;;;;;;;4.82;3.33;;;1.10;81.20;;;;;;5090892;28;20454;-72
2021/01/19 05:52:13;;;;;;;7.07;3.92;;;0.90;81.60;;;;;;5098210;28;20404;-73
2021/01/19 05:54:39;;;;;;;6.70;3.70;;;0.90;82.60;;;;;;5110422;28;20501;-73
2021/01/19 05:57:10;;;;;;;4.88;3.35;;;0.70;82.60;;;;;;5099679;28;20463;-72
2021/01/19 05:59:41;;;;;;;7.22;3.67;;;0.70;82.80;;;;;;5090823;28;20502;-73
2021/01/19 06:02:16;;;;;;;7.57;4.45;;;0.70;83.20;;;;;;5087814;28;20418;-73
2021/01/19 06:04:47;;;;;;;8.05;4.20;;;0.90;82.70;;;;;;5089848;28;20398;-73
2021/01/19 06:07:19;;;;;;;8.00;4.73;;;0.80;82.40;;;;;;5086478;28;21164;-72
2021/01/19 06:09:49;;;;;;;7.05;4.70;;;0.80;82.80;;;;;;5089495;28;20778;-73
2021/01/19 06:12:19;;;;;;;7.90;4.40;;;0.70;82.50;;;;;;5087568;28;20495;-73
2021/01/19 06:14:54;;;;;;;7.72;4.60;;;0.70;82.60;;;;;;5091143;28;20406;-72
2021/01/19 06:17:22;;;;;;;7.10;4.57;;;0.70;82.60;;;;;;5093996;28;20417;-73
2021/01/19 06:19:50;;;;;;;7.93;4.47;;;0.70;82.60;;;;;;5089474;28;20433;-73
2021/01/19 06:22:23;;;;;;;6.97;4.70;;;0.80;82.40;;;;;;5095174;28;20465;-72
2021/01/19 06:24:51;;;;;;;5.95;3.97;;;0.60;83.10;;;;;;5087977;28;20858;-73
2021/01/19 06:27:20;;;;;;;73.82;38.97;;;0.60;83.30;;;;;;5089550;28;20398;-73
2021/01/19 06:29:50;;;;;;;47.67;26.20;;;0.60;83.30;;;;;;5086494;28;20895;-73
2021/01/19 06:32:19;;;;;;;13.02;7.93;;;0.60;83.00;;;;;;5097045;28;20412;-73
2021/01/19 06:34:46;;;;;;;8.57;4.82;;;0.50;83.40;;;;;;5094356;28;20480;-73
2021/01/19 06:37:24;;;;;;;16.70;10.18;;;0.50;83.90;;;;;;5090664;28;20402;-73
2021/01/19 06:39:58;;;;;;;16.80;11.73;;;0.40;84.00;;;;;;5099048;28;20420;-72
2021/01/19 06:42:29;;;;;;;6.60;4.50;;;0.50;83.60;;;;;;5110764;28;20396;-72
2021/01/19 06:45:00;;;;;;;7.38;4.03;;;0.40;84.20;;;;;;5096478;28;20742;-72
2021/01/19 06:47:26;;;;;;;6.50;4.17;;;0.60;83.80;;;;;;5102403;28;20489;-72
2021/01/19 06:50:01;;;;;;;9.35;4.60;;;0.60;83.40;;;;;;5099876;28;20416;-73
2021/01/19 06:52:41;;;;;;;6.97;4.50;;;0.40;84.00;;;;;;5090645;28;20459;-73
2021/01/19 06:55:22;;;;;;;8.60;4.45;;;0.30;84.80;;;;;;5092779;28;20796;-72
2021/01/19 06:58:16;;;;;;;7.50;4.45;;;0.20;85.60;;;;;;5114932;27;20404;-72
2021/01/19 07:00:43;;;;;;;7.57;4.72;;;0.00;86.40;;;;;;5102402;28;20419;-72
2021/01/19 07:03:25;;;;;;;7.97;5.10;;;-0.10;87.20;;;;;;5093306;28;20425;-73
2021/01/19 07:05:53;;;;;;;7.27;4.80;;;-0.10;88.00;;;;;;5093230;28;20854;-73
2021/01/19 07:08:21;;;;;;;9.38;5.10;;;-0.20;87.90;;;;;;5111758;28;20477;-73
2021/01/19 07:10:48;;;;;;;7.70;5.00;;;-0.20;87.90;;;;;;5091542;27;20413;-73
2021/01/19 07:13:24;;;;;;;11.27;6.13;;;-0.10;88.20;;;;;;5093164;28;20482;-73
2021/01/19 07:16:10;;;;;;;13.73;7.15;;;-0.10;88.10;;;;;;5091047;28;20413;-73
2021/01/19 07:18:44;;;;;;;19.75;10.30;;;-0.10;88.20;;;;;;5092509;28;20469;-73
2021/01/19 07:21:12;;;;;;;28.38;13.77;;;0.00;88.50;;;;;;5096820;27;20426;-72
2021/01/19 07:23:45;;;;;;;25.58;13.48;;;0.20;87.40;;;;;;5108878;28;20432;-71
2021/01/19 07:26:40;;;;;;;24.73;13.17;;;0.10;87.70;;;;;;5110191;28;20408;-71
2021/01/19 07:29:07;;;;;;;24.52;11.70;;;0.00;88.20;;;;;;5094962;28;20463;-71
2021/01/19 07:31:34;;;;;;;23.67;11.45;;;0.00;88.70;;;;;;5109153;28;20430;-71
2021/01/19 07:34:05;;;;;;;40.00;17.73;;;0.00;88.80;;;;;;5093289;28;20402;-71
2021/01/19 07:36:32;;;;;;;40.08;18.15;;;0.00;89.20;;;;;;5091777;28;20422;-71
2021/01/19 07:39:01;;;;;;;24.27;10.93;;;0.00;89.30;;;;;;5089157;28;20874;-71
2021/01/19 07:41:35;;;;;;;26.05;11.00;;;0.00;89.00;;;;;;5093254;28;20422;-71
2021/01/19 07:44:02;;;;;;;22.63;10.48;;;0.10;89.10;;;;;;5089004;28;20417;-71
2021/01/19 07:46:43;;;;;;;15.48;8.70;;;0.10;89.30;;;;;;5093210;28;20455;-71
2021/01/19 07:49:10;;;;;;;10.30;5.88;;;0.20;89.20;;;;;;5088718;28;20416;-72
2021/01/19 07:51:42;;;;;;;8.20;5.70;;;0.40;88.30;;;;;;5105091;28;20415;-72
2021/01/19 07:54:10;;;;;;;12.40;6.60;;;0.40;88.00;;;;;;5096842;28;20402;-72
2021/01/19 07:56:37;;;;;;;12.35;6.05;;;0.50;87.70;;;;;;5110996;28;20420;-72
2021/01/19 07:59:17;;;;;;;9.97;6.13;;;0.40;87.40;;;;;;5110126;28;20419;-72
2021/01/19 08:02:01;;;;;;;13.20;6.43;;;0.60;87.20;;;;;;5103591;28;20424;-72
2021/01/19 08:04:36;;;;;;;13.27;6.50;;;0.60;86.70;;;;;;5109186;28;20415;-71
2021/01/19 08:07:19;;;;;;;12.82;6.22;;;0.60;87.00;;;;;;5109328;28;20417;-71
2021/01/19 08:09:46;;;;;;;8.82;5.38;;;0.60;86.90;;;;;;5102859;28;20886;-71
2021/01/19 08:12:17;;;;;;;9.20;5.57;;;0.80;86.10;;;;;;5112894;28;20407;-71
2021/01/19 08:14:45;;;;;;;9.00;5.22;;;0.90;85.70;;;;;;5100639;28;21421;-71
2021/01/19 08:17:12;;;;;;;9.03;5.33;;;0.80;86.00;;;;;;5091450;28;20726;-72
2021/01/19 08:19:41;;;;;;;9.77;4.90;;;0.80;86.00;;;;;;5101916;28;20422;-71
2021/01/19 08:22:14;;;;;;;10.98;4.65;;;0.90;85.80;;;;;;5097839;28;20412;-72
2021/01/19 08:24:42;;;;;;;9.13;4.80;;;1.00;85.50;;;;;;5106081;27;20419;-72
2021/01/19 08:27:09;;;;;;;10.77;5.03;;;1.00;85.50;;;;;;5092115;28;20406;-72
2021/01/19 08:29:37;;;;;;;9.20;5.03;;;1.20;84.50;;;;;;5091395;28;20417;-71
2021/01/19 08:32:08;;;;;;;6.78;4.40;;;1.30;84.00;;;;;;5090244;28;20428;-72
2021/01/19 08:34:38;;;;;;;8.63;4.63;;;1.30;83.40;;;;;;5091766;28;20417;-72
2021/01/19 08:37:05;;;;;;;8.15;4.50;;;1.30;83.90;;;;;;5102921;28;20431;-72
2021/01/19 08:39:32;;;;;;;12.40;4.60;;;1.30;83.90;;;;;;5117689;27;20422;-72
2021/01/19 08:42:11;;;;;;;14.17;5.47;;;1.50;83.40;;;;;;5089865;27;20448;-71
2021/01/19 08:44:37;;;;;;;56.83;20.15;;;1.50;83.10;;;;;;5091624;28;20401;-72
2021/01/19 08:47:04;;;;;;;16.98;7.60;;;1.50;82.50;;;;;;5088478;28;20426;-72
2021/01/19 08:49:36;;;;;;;9.85;4.47;;;1.70;82.10;;;;;;5091149;28;20448;-72
2021/01/19 08:52:05;;;;;;;11.60;3.88;;;1.80;81.90;;;;;;5088376;28;20410;-72
2021/01/19 08:54:33;;;;;;;13.38;4.85;;;1.90;81.30;;;;;;5091463;28;20414;-72
2021/01/19 08:57:02;;;;;;;9.90;4.43;;;1.90;81.50;;;;;;5094700;27;20420;-72
2021/01/19 08:59:52;;;;;;;17.85;6.55;;;2.00;81.10;;;;;;5099899;28;20870;-72
2021/01/19 09:02:19;;;;;;;16.70;6.20;;;2.00;80.50;;;;;;5089515;27;20424;-72
2021/01/19 09:04:46;;;;;;;14.90;5.70;;;2.10;80.00;;;;;;5090986;28;20463;-72
2021/01/19 09:07:12;;;;;;;10.73;4.25;;;2.20;79.70;;;;;;5104155;28;20458;-72
2021/01/19 09:09:46;;;;;;;7.93;3.90;;;2.50;78.40;;;;;;5112038;28;20431;-72
2021/01/19 09:12:22;;;;;;;5.85;3.20;;;2.60;77.70;;;;;;5106028;27;20730;-72
2021/01/19 09:14:53;;;;;;;5.88;3.17;;;2.80;76.50;;;;;;5091827;28;20440;-72
2021/01/19 09:17:27;;;;;;;7.25;3.20;;;2.80;76.30;;;;;;5107035;28;20929;-72
2021/01/19 09:20:08;;;;;;;6.72;3.50;;;2.80;77.10;;;;;;5090257;28;20827;-72
2021/01/19 09:22:37;;;;;;;7.43;3.78;;;2.90;75.80;;;;;;5097742;28;20408;-72
2021/01/19 09:25:04;;;;;;;8.65;3.78;;;2.90;76.30;;;;;;5088390;27;20493;-72
2021/01/19 09:27:32;;;;;;;9.73;4.10;;;2.90;76.10;;;;;;5104312;28;20412;-72
2021/01/19 09:30:06;;;;;;;6.78;3.25;;;3.10;76.30;;;;;;5107218;28;20403;-70
2021/01/19 09:32:39;;;;;;;6.55;3.28;;;3.50;74.90;;;;;;5110603;28;20400;-71
2021/01/19 09:35:08;;;;;;;6.07;3.38;;;3.80;73.90;;;;;;5093881;28;20501;-70
2021/01/19 09:37:34;;;;;;;9.23;3.58;;;3.90;73.80;;;;;;5090351;28;20416;-71
2021/01/19 09:40:02;;;;;;;8.95;4.10;;;4.20;71.60;;;;;;5088359;28;20931;-73
2021/01/19 09:42:28;;;;;;;7.93;4.20;;;4.40;69.90;;;;;;5090161;28;20463;-70
2021/01/19 09:44:58;;;;;;;9.23;3.73;;;4.70;70.40;;;;;;5087791;28;20426;-70
2021/01/19 09:47:27;;;;;;;8.15;3.53;;;5.00;68.70;;;;;;5106576;28;20912;-71
2021/01/19 09:49:54;;;;;;;12.73;4.30;;;5.10;68.50;;;;;;5100784;28;20410;-71
2021/01/19 09:52:29;;;;;;;7.93;3.83;;;5.30;67.80;;;;;;5091050;28;20474;-71
2021/01/19 09:55:09;;;;;;;7.53;3.40;;;5.80;66.00;;;;;;5093154;27;20430;-71
2021/01/19 09:57:38;;;;;;;7.75;3.53;;;6.00;65.10;;;;;;5131725;27;20423;-71
2021/01/19 10:00:13;;;;;;;6.93;3.45;;;6.50;63.50;;;;;;5122319;27;20429;-71
2021/01/19 10:02:42;;;;;;;6.20;3.00;;;7.00;61.50;;;;;;5090501;28;20437;-71
2021/01/19 10:05:11;;;;;;;9.30;3.22;;;7.20;60.50;;;;;;5088659;28;20409;-71
2021/01/19 10:07:37;;;;;;;6.57;3.47;;;7.10;60.30;;;;;;5110417;28;20501;-71
2021/01/19 10:10:09;;;;;;;7.30;3.47;;;6.70;62.10;;;;;;5108760;28;20431;-71
2021/01/19 10:12:41;;;;;;;6.93;3.55;;;6.40;63.60;;;;;;5106528;28;20408;-72
2021/01/19 10:15:09;;;;;;;10.38;3.53;;;6.20;64.20;;;;;;5110226;28;20392;-71
2021/01/19 10:17:41;;;;;;;8.73;3.80;;;6.10;64.30;;;;;;5090076;28;20418;-72
2021/01/19 10:20:13;;;;;;;9.35;4.32;;;6.40;63.30;;;;;;5090217;28;20516;-71
2021/01/19 10:22:46;;;;;;;8.57;4.40;;;6.70;61.80;;;;;;5094882;28;20413;-72
2021/01/19 10:25:25;;;;;;;9.63;4.55;;;7.50;60.30;;;;;;5110745;28;20966;-72
2021/01/19 10:27:56;;;;;;;9.63;4.27;;;8.30;56.70;;;;;;5106774;28;20401;-72
2021/01/19 10:30:28;;;;;;;8.83;4.30;;;8.70;56.60;;;;;;5098514;28;20796;-71
2021/01/19 10:32:55;;;;;;;8.18;3.63;;;9.50;53.90;;;;;;5102240;27;20408;-72
2021/01/19 10:35:27;;;;;;;7.60;3.47;;;10.20;52.00;;;;;;5114654;28;20412;-72
2021/01/19 10:37:56;;;;;;;9.48;3.42;;;10.50;50.20;;;;;;5101363;28;20461;-72
2021/01/19 10:40:22;;;;;;;6.00;3.70;;;10.80;48.50;;;;;;5094395;28;20471;-72
2021/01/19 10:42:49;;;;;;;8.90;4.55;;;11.30;47.80;;;;;;5095970;28;20436;-72
2021/01/19 10:45:31;;;;;;;8.18;3.65;;;11.30;47.50;;;;;;5104762;28;20494;-72
2021/01/19 10:48:01;;;;;;;8.25;3.17;;;11.60;45.90;;;;;;5091430;28;20402;-72
2021/01/19 10:50:32;;;;;;;8.03;2.80;;;11.40;47.00;;;;;;5094387;28;20460;-72
2021/01/19 10:53:05;;;;;;;7.10;2.70;;;11.70;45.40;;;;;;5091334;28;20470;-72
2021/01/19 10:55:33;;;;;;;4.55;2.90;;;11.90;45.40;;;;;;5111681;28;20419;-72
2021/01/19 10:58:04;;;;;;;5.90;3.35;;;12.40;42.50;;;;;;5113473;28;20585;-71
2021/01/19 11:00:32;;;;;;;5.47;3.00;;;12.70;44.00;;;;;;5106266;28;20440;-71
2021/01/19 11:02:59;;;;;;;5.27;3.07;;;12.50;43.70;;;;;;5076043;28;20471;-72
2021/01/19 11:05:27;;;;;;;5.47;2.80;;;12.90;42.70;;;;;;5091449;28;20441;-72
2021/01/19 11:07:54;;;;;;;4.13;2.73;;;13.80;39.60;;;;;;5099208;28;20448;-73
2021/01/19 11:10:25;;;;;;;5.18;2.92;;;14.20;38.80;;;;;;5089840;28;20426;-73
2021/01/19 11:12:55;;;;;;;4.33;2.90;;;14.10;39.50;;;;;;5093199;28;20461;-72
2021/01/19 11:15:22;;;;;;;5.47;3.30;;;14.70;37.50;;;;;;5090385;28;20414;-72
2021/01/19 11:17:50;;;;;;;6.60;3.50;;;14.30;37.30;;;;;;5094474;28;20402;-76
2021/01/19 11:20:21;;;;;;;5.32;2.92;;;14.20;36.40;;;;;;5090981;28;20723;-71
2021/01/19 11:22:50;;;;;;;4.60;2.80;;;14.60;37.80;;;;;;5099482;28;20854;-71
2021/01/19 11:25:19;;;;;;;4.78;2.88;;;14.40;36.70;;;;;;5089033;28;20800;-72
2021/01/19 11:27:51;;;;;;;4.15;3.00;;;14.70;36.30;;;;;;5093700;28;20398;-71
2021/01/19 11:30:18;;;;;;;6.63;3.55;;;14.70;37.20;;;;;;5092975;28;20409;-71
2021/01/19 11:32:44;;;;;;;8.40;3.77;;;15.00;36.60;;;;;;5093407;28;20471;-71
2021/01/19 11:35:13;;;;;;;6.65;4.55;;;15.20;36.50;;;;;;5090516;27;20504;-71
2021/01/19 11:37:40;;;;;;;10.60;6.47;;;15.30;35.60;;;;;;5132573;27;20406;-71
2021/01/19 11:40:07;;;;;;;9.60;6.13;;;15.90;35.80;;;;;;5132042;27;20870;-73
2021/01/19 11:42:34;;;;;;;5.10;3.50;;;16.30;35.20;;;;;;5093418;27;20432;-71
2021/01/19 11:45:03;;;;;;;5.93;3.42;;;16.80;33.10;;;;;;5092708;28;20493;-71
2021/01/19 11:47:30;;;;;;;5.20;3.25;;;17.00;31.70;;;;;;5089337;28;20467;-71
2021/01/19 11:49:57;;;;;;;5.10;3.67;;;16.10;32.60;;;;;;5092943;28;20543;-71
2021/01/19 11:52:24;;;;;;;6.55;3.63;;;14.30;35.20;;;;;;5112274;27;20475;-71
2021/01/19 11:54:50;;;;;;;4.82;3.67;;;14.20;38.50;;;;;;5132465;27;20406;-72
2021/01/19 11:57:16;;;;;;;5.97;3.60;;;14.60;36.90;;;;;;5112979;27;20885;-72
2021/01/19 11:59:43;;;;;;;12.90;4.83;;;15.00;35.30;;;;;;5092077;28;20441;-72
2021/01/19 12:02:09;;;;;;;7.35;4.28;;;15.10;37.50;;;;;;5088614;28;20451;-72
2021/01/19 12:04:37;;;;;;;4.47;3.50;;;15.40;35.30;;;;;;5092510;28;20851;-71
2021/01/19 12:07:07;;;;;;;7.65;3.90;;;15.70;35.10;;;;;;5105974;27;20833;-71
2021/01/19 12:09:33;;;;;;;7.30;3.92;;;16.30;32.90;;;;;;5091476;28;20711;-72
2021/01/19 12:12:02;;;;;;;8.10;3.72;;;16.80;32.40;;;;;;5092232;28;20907;-71
2021/01/19 12:14:28;;;;;;;5.63;3.90;;;16.50;33.00;;;;;;5089199;28;20413;-71
2021/01/19 12:16:56;;;;;;;8.25;5.70;;;17.00;31.80;;;;;;5091825;28;20414;-71
2021/01/19 12:19:24;;;;;;;5.95;4.22;;;17.20;31.70;;;;;;5088034;28;20457;-71
2021/01/19 12:21:55;;;;;;;5.95;4.00;;;17.40;30.90;;;;;;5093801;28;20401;-71
2021/01/19 12:24:25;;;;;;;11.43;7.38;;;17.50;31.20;;;;;;5095421;28;20405;-71
2021/01/19 12:26:59;;;;;;;19.85;8.65;;;17.50;31.50;;;;;;5091992;28;20830;-71
2021/01/19 12:29:26;;;;;;;6.47;4.20;;;17.50;31.80;;;;;;5089224;28;20410;-72
2021/01/19 12:31:59;;;;;;;6.05;4.38;;;17.20;31.60;;;;;;5107250;28;20484;-71
2021/01/19 12:34:27;;;;;;;5.50;3.87;;;17.40;31.90;;;;;;5101038;27;20402;-72
2021/01/19 12:36:54;;;;;;;5.70;3.80;;;17.60;30.80;;;;;;5091466;28;20417;-72
2021/01/19 12:39:22;;;;;;;6.05;4.03;;;17.90;31.00;;;;;;5088532;28;20422;-73
2021/01/19 12:41:50;;;;;;;6.70;3.92;;;18.10;30.00;;;;;;5091303;28;20451;-72
2021/01/19 12:44:19;;;;;;;7.38;4.90;;;18.50;30.00;;;;;;5088752;28;20510;-72
2021/01/19 12:46:47;;;;;;;6.65;4.00;;;18.50;29.60;;;;;;5091114;28;20417;-73
2021/01/19 12:49:14;;;;;;;6.35;4.07;;;18.70;30.00;;;;;;5102499;28;20525;-72
2021/01/19 12:51:40;;;;;;;5.37;4.00;;;18.90;29.30;;;;;;5087174;28;20410;-72
2021/01/19 12:54:07;;;;;;;5.22;3.78;;;19.10;28.70;;;;;;5091799;28;20463;-72
2021/01/19 12:56:34;;;;;;;8.00;3.90;;;18.80;28.50;;;;;;5087065;28;21381;-72
2021/01/19 12:59:00;;;;;;;5.20;4.00;;;18.40;29.20;;;;;;5091196;28;20560;-72
2021/01/19 13:01:29;;;;;;;7.38;3.95;;;17.50;30.20;;;;;;5088111;28;20850;-72
2021/01/19 13:03:55;;;;;;;6.53;4.35;;;16.50;32.00;;;;;;5101446;28;20791;-72
2021/01/19 13:06:22;;;;;;;6.03;4.38;;;15.70;32.80;;;;;;5111328;27;20869;-72
2021/01/19 13:08:48;;;;;;;7.53;4.35;;;15.10;34.50;;;;;;5115168;27;20466;-73
2021/01/19 13:11:14;;;;;;;7.28;4.60;;;14.60;34.70;;;;;;5112870;27;20915;-72